createdAt,value
2019-03-31T00:01:55.649Z,126.40
2019-03-31T00:04:26.082Z,117.30
2019-03-31T00:06:56.563Z,124.37
2019-03-31T00:09:27.987Z,125.50
2019-03-31T00:11:58.499Z,118.93
2019-03-31T00:14:28.933Z,109.67
2019-03-31T00:16:59.511Z,105.33
2019-03-31T00:19:29.950Z,114.67
2019-03-31T00:22:00.459Z,99.67
2019-03-31T00:24:30.906Z,106.30
2019-03-31T00:27:01.399Z,105.40
2019-03-31T00:29:31.809Z,115.40
2019-03-31T00:32:02.288Z,106.07
2019-03-31T00:34:32.723Z,97.63
2019-03-31T00:37:03.621Z,102.87
2019-03-31T00:39:34.054Z,116.67
2019-03-31T00:42:04.623Z,103.37
2019-03-31T00:44:35.080Z,113.90
2019-03-31T00:47:05.541Z,106.57
2019-03-31T00:49:38.034Z,109.30
2019-03-31T00:52:08.518Z,102.17
2019-03-31T00:54:38.920Z,120.10
2019-03-31T00:57:09.385Z,117.60
2019-03-31T00:59:39.788Z,125.93
2019-03-31T01:02:11.857Z,114.40
2019-03-31T01:04:42.312Z,123.97
2019-03-31T01:07:12.823Z,137.03
2019-03-31T01:09:44.191Z,129.30
2019-03-31T01:12:14.873Z,129.23
2019-03-31T01:14:45.330Z,120.50
2019-03-31T01:17:18.878Z,115.57
2019-03-31T01:19:48.943Z,120.50
2019-03-31T01:22:19.433Z,120.47
2019-03-31T01:24:49.888Z,123.43
2019-03-31T01:27:20.462Z,114.77
2019-03-31T01:29:50.880Z,122.37
2019-03-31T01:32:21.492Z,117.80
2019-03-31T01:34:51.949Z,118.37
2019-03-31T01:37:22.857Z,116.80
2019-03-31T01:39:54.118Z,116.53
2019-03-31T01:42:24.708Z,119.73
2019-03-31T01:44:55.188Z,130.57
2019-03-31T01:47:25.664Z,127.63
2019-03-31T01:49:56.111Z,142.13
2019-03-31T01:52:26.561Z,145.57
2019-03-31T01:54:58.033Z,149.77
2019-03-31T01:57:28.488Z,164.53
2019-03-31T01:59:58.922Z,163.77
2019-03-31T02:02:30.845Z,165.80
2019-03-31T02:05:01.293Z,169.00
2019-03-31T02:07:31.764Z,185.40
2019-03-31T02:10:06.370Z,190.30
2019-03-31T02:12:36.852Z,182.80
2019-03-31T02:15:08.452Z,192.43
2019-03-31T02:17:38.993Z,192.17
2019-03-31T02:20:09.443Z,196.27
2019-03-31T02:22:39.902Z,191.00
2019-03-31T02:25:10.466Z,187.77
2019-03-31T02:27:40.860Z,191.13
2019-03-31T02:30:11.409Z,184.70
2019-03-31T02:32:41.870Z,168.10
2019-03-31T02:35:12.497Z,175.47
2019-03-31T02:37:43.010Z,168.30
2019-03-31T02:40:13.437Z,168.23
2019-03-31T02:42:43.893Z,149.00
2019-03-31T02:45:14.431Z,156.53
2019-03-31T02:47:44.901Z,154.93
2019-03-31T02:50:36.429Z,152.23
2019-03-31T02:53:06.918Z,156.00
2019-03-31T02:55:37.538Z,140.87
2019-03-31T02:58:09.016Z,139.53
2019-03-31T03:00:39.447Z,141.73
2019-03-31T03:03:10.329Z,143.30
2019-03-31T03:05:41.976Z,146.87
2019-03-31T03:08:14.253Z,128.13
2019-03-31T03:10:45.652Z,133.53
2019-03-31T03:13:16.177Z,130.27
2019-03-31T03:15:58.477Z,130.13
2019-03-31T03:18:29.090Z,141.80
2019-03-31T03:20:59.562Z,154.53
2019-03-31T03:23:30.062Z,154.40
2019-03-31T03:26:00.558Z,143.43
2019-03-31T03:28:31.046Z,154.43
2019-03-31T03:31:01.619Z,156.17
2019-03-31T03:33:32.314Z,153.77
2019-03-31T03:36:02.749Z,157.03
2019-03-31T03:38:33.257Z,158.73
2019-03-31T03:41:03.838Z,157.57
2019-03-31T03:43:34.319Z,163.37
2019-03-31T03:46:04.872Z,178.03
2019-03-31T03:48:35.671Z,210.07
2019-03-31T03:51:06.189Z,179.20
2019-03-31T03:53:36.708Z,151.33
2019-03-31T03:56:07.184Z,161.47
2019-03-31T03:58:37.679Z,152.40
2019-03-31T04:01:12.595Z,157.93
2019-03-31T04:03:43.095Z,171.27
2019-03-31T04:06:13.559Z,171.27
2019-03-31T04:08:44.026Z,166.50
2019-03-31T04:11:21.581Z,168.53
2019-03-31T04:13:50.938Z,165.93
2019-03-31T04:16:21.379Z,157.20
2019-03-31T04:18:51.953Z,156.23
2019-03-31T04:21:22.398Z,157.73
2019-03-31T04:23:52.928Z,147.63
2019-03-31T04:26:23.397Z,152.03
2019-03-31T04:28:53.907Z,155.50
2019-03-31T04:31:24.371Z,168.83
2019-03-31T04:33:54.862Z,171.80
2019-03-31T04:36:25.301Z,161.43
2019-03-31T04:38:59.896Z,163.63
2019-03-31T04:41:27.938Z,157.53
2019-03-31T04:43:58.450Z,158.83
2019-03-31T04:46:28.893Z,159.60
2019-03-31T04:48:59.385Z,153.40
2019-03-31T04:51:29.850Z,151.73
2019-03-31T04:54:00.411Z,155.20
2019-03-31T04:56:30.849Z,159.00
2019-03-31T04:59:01.350Z,176.40
2019-03-31T05:01:31.873Z,166.93
2019-03-31T05:04:05.067Z,185.27
2019-03-31T05:06:34.548Z,168.40
2019-03-31T05:09:06.447Z,163.83
2019-03-31T05:11:37.785Z,161.67
2019-03-31T05:14:08.280Z,169.23
2019-03-31T05:16:38.749Z,157.97
2019-03-31T05:19:09.309Z,167.67
2019-03-31T05:21:39.799Z,155.97
2019-03-31T05:24:10.325Z,149.67
2019-03-31T05:26:40.798Z,160.30
2019-03-31T05:29:11.405Z,137.03
2019-03-31T05:31:41.895Z,133.00
2019-03-31T05:34:18.818Z,134.13
2019-03-31T05:36:44.703Z,129.47
2019-03-31T05:39:15.211Z,132.57
2019-03-31T05:41:45.690Z,133.83
2019-03-31T05:44:16.240Z,128.30
2019-03-31T05:46:46.696Z,121.97
2019-03-31T05:49:17.209Z,111.10
2019-03-31T05:51:47.700Z,109.77
2019-03-31T05:54:18.223Z,113.27
2019-03-31T05:56:48.683Z,102.03
2019-03-31T05:59:19.210Z,103.30
2019-03-31T06:01:49.750Z,102.37
2019-03-31T06:04:32.597Z,105.87
2019-03-31T06:06:52.571Z,110.37
2019-03-31T06:09:23.177Z,101.90
2019-03-31T06:11:54.533Z,93.97
2019-03-31T06:14:25.053Z,100.70
2019-03-31T06:16:55.559Z,91.53
2019-03-31T06:19:26.165Z,94.20
2019-03-31T06:21:56.639Z,81.43
2019-03-31T06:24:27.212Z,82.13
2019-03-31T06:26:57.680Z,84.07
2019-03-31T06:29:28.200Z,92.07
2019-03-31T06:31:58.772Z,78.43
2019-03-31T06:34:29.258Z,71.40
2019-03-31T06:36:59.823Z,70.37
2019-03-31T06:39:30.349Z,70.50
2019-03-31T06:42:00.859Z,69.73
2019-03-31T06:44:31.370Z,68.37
2019-03-31T06:47:01.885Z,47.43
2019-03-31T06:49:32.443Z,46.53
2019-03-31T06:52:02.911Z,44.70
2019-03-31T06:54:33.471Z,47.20
2019-03-31T06:57:03.920Z,51.17
2019-03-31T06:59:34.410Z,49.27
2019-03-31T07:02:04.927Z,49.77
2019-03-31T07:04:35.461Z,46.13
2019-03-31T07:07:05.926Z,45.27
2019-03-31T07:09:36.472Z,48.00
2019-03-31T07:12:07.846Z,49.27
2019-03-31T07:14:38.409Z,45.47
2019-03-31T07:17:08.877Z,42.30
2019-03-31T07:19:39.510Z,46.67
2019-03-31T07:22:09.976Z,44.80
2019-03-31T07:24:40.496Z,43.83
2019-03-31T07:27:10.961Z,45.87
2019-03-31T07:29:41.878Z,45.50
2019-03-31T07:32:12.370Z,47.80
2019-03-31T07:34:42.984Z,39.17
2019-03-31T07:37:13.457Z,39.17
2019-03-31T07:39:45.963Z,33.67
2019-03-31T07:42:16.281Z,34.57
2019-03-31T07:44:46.836Z,32.83
2019-03-31T07:47:17.295Z,38.20
2019-03-31T07:49:47.800Z,36.83
2019-03-31T07:52:18.275Z,34.17
2019-03-31T07:54:48.811Z,36.13
2019-03-31T07:57:19.319Z,36.00
2019-03-31T07:59:49.901Z,34.43
2019-03-31T08:02:20.397Z,40.20
2019-03-31T08:04:51.152Z,38.70
2019-03-31T08:07:21.631Z,42.33
2019-03-31T08:09:52.202Z,44.07
2019-03-31T08:12:23.668Z,39.50
2019-03-31T08:14:54.171Z,39.13
2019-03-31T08:17:24.676Z,38.63
2019-03-31T08:19:55.257Z,41.17
2019-03-31T08:22:25.785Z,52.10
2019-03-31T08:24:56.341Z,41.40
2019-03-31T08:27:26.886Z,42.57
2019-03-31T08:30:00.833Z,42.33
2019-03-31T08:32:31.218Z,41.97
2019-03-31T08:35:01.742Z,44.97
2019-03-31T08:37:32.458Z,43.10
2019-03-31T08:40:03.125Z,45.10
2019-03-31T08:42:33.653Z,41.33
2019-03-31T08:45:10.483Z,39.73
2019-03-31T08:47:41.008Z,36.40
2019-03-31T08:50:14.013Z,36.70
2019-03-31T08:52:44.535Z,35.70
2019-03-31T08:55:15.496Z,31.47
2019-03-31T08:57:46.083Z,37.70
2019-03-31T09:00:22.368Z,34.73
2019-03-31T09:02:52.874Z,41.77
2019-03-31T09:05:23.420Z,32.13
2019-03-31T09:07:54.037Z,31.23
2019-03-31T09:10:27.232Z,31.65
2019-03-31T09:12:58.581Z,29.77
2019-03-31T09:15:29.062Z,33.00
2019-03-31T09:17:59.555Z,37.78
2019-03-31T09:20:30.190Z,28.90
2019-03-31T09:23:00.691Z,29.12
2019-03-31T09:25:31.269Z,33.70
2019-03-31T09:28:01.788Z,38.35
2019-03-31T09:30:34.898Z,33.23
2019-03-31T09:33:05.437Z,29.57
2019-03-31T09:35:35.922Z,27.22
2019-03-31T09:38:06.365Z,27.90
2019-03-31T09:40:36.929Z,32.33
2019-03-31T09:43:09.512Z,28.92
2019-03-31T09:45:40.067Z,31.40
2019-03-31T09:48:10.545Z,28.42
2019-03-31T09:50:41.076Z,32.45
2019-03-31T09:53:11.576Z,54.03
2019-03-31T09:55:42.088Z,28.75
2019-03-31T09:58:12.567Z,30.23
2019-03-31T10:00:45.972Z,27.00
2019-03-31T10:03:16.739Z,28.95
2019-03-31T10:05:48.124Z,33.92
2019-03-31T10:08:22.022Z,27.40
2019-03-31T10:10:51.422Z,28.10
2019-03-31T10:13:22.749Z,34.65
2019-03-31T10:15:54.277Z,25.62
2019-03-31T10:18:24.753Z,28.45
2019-03-31T10:20:55.344Z,29.77
2019-03-31T10:23:25.795Z,26.70
2019-03-31T10:25:56.347Z,32.33
2019-03-31T10:28:26.836Z,29.70
2019-03-31T10:30:57.356Z,27.50
2019-03-31T10:33:27.846Z,25.48
2019-03-31T10:35:58.366Z,37.48
2019-03-31T10:38:28.829Z,28.67
2019-03-31T10:40:59.339Z,36.70
2019-03-31T10:43:29.768Z,32.85
2019-03-31T10:46:00.266Z,35.98
2019-03-31T10:48:30.733Z,31.40
2019-03-31T10:51:01.981Z,40.90
2019-03-31T10:53:32.421Z,34.05
2019-03-31T10:56:02.938Z,38.75
2019-03-31T10:58:33.400Z,33.15
2019-03-31T11:01:03.900Z,37.80
2019-03-31T11:03:34.344Z,34.85
2019-03-31T11:06:04.812Z,37.40
2019-03-31T11:08:35.545Z,35.33
2019-03-31T11:11:06.041Z,41.28
2019-03-31T11:13:37.418Z,40.38
2019-03-31T11:16:07.936Z,39.83
2019-03-31T11:18:38.425Z,41.23
2019-03-31T11:21:10.560Z,37.75
2019-03-31T11:23:41.006Z,39.45
2019-03-31T11:26:11.463Z,39.70
2019-03-31T11:28:41.918Z,40.52
2019-03-31T11:31:12.413Z,35.40
2019-03-31T11:33:43.795Z,41.40
2019-03-31T11:36:14.309Z,39.18
2019-03-31T11:38:44.733Z,42.33
2019-03-31T11:41:15.221Z,35.00
2019-03-31T11:43:45.664Z,41.45
2019-03-31T11:46:16.135Z,42.13
2019-03-31T11:48:46.614Z,36.83
2019-03-31T11:51:17.105Z,33.73
2019-03-31T11:53:47.553Z,41.77
2019-03-31T11:56:18.054Z,47.73
2019-03-31T11:58:48.505Z,31.52
2019-03-31T12:01:18.975Z,32.50
2019-03-31T12:03:49.415Z,30.10
2019-03-31T12:06:19.897Z,30.62
2019-03-31T12:08:50.375Z,31.73
2019-03-31T12:11:20.861Z,25.10
2019-03-31T12:13:52.197Z,24.25
2019-03-31T12:16:24.253Z,23.60
2019-03-31T12:18:54.670Z,30.85
2019-03-31T12:21:25.223Z,25.23
2019-03-31T12:23:55.662Z,22.95
2019-03-31T12:26:26.214Z,20.77
2019-03-31T12:28:56.697Z,22.77
2019-03-31T12:31:27.204Z,24.52
2019-03-31T12:33:57.690Z,22.48
2019-03-31T12:36:28.189Z,25.43
2019-03-31T12:38:58.656Z,23.25
2019-03-31T12:41:29.142Z,28.23
2019-03-31T12:43:59.570Z,23.20
2019-03-31T12:46:30.085Z,20.88
2019-03-31T12:49:00.594Z,19.55
2019-03-31T12:51:31.050Z,19.92
2019-03-31T12:54:01.480Z,21.23
2019-03-31T12:56:31.997Z,20.45
2019-03-31T12:59:02.439Z,19.37
2019-03-31T13:01:32.989Z,22.62
2019-03-31T13:04:03.414Z,18.12
2019-03-31T13:06:33.930Z,21.17
2019-03-31T13:09:06.473Z,19.12
2019-03-31T13:11:36.987Z,20.95
2019-03-31T13:14:08.597Z,22.22
2019-03-31T13:16:39.106Z,23.57
2019-03-31T13:19:09.569Z,19.65
2019-03-31T13:21:41.234Z,21.17
2019-03-31T13:24:11.678Z,18.48
2019-03-31T13:26:42.147Z,17.98
2019-03-31T13:29:12.641Z,18.42
2019-03-31T13:31:43.078Z,19.00
2019-03-31T13:34:13.487Z,23.47
2019-03-31T13:36:43.930Z,26.07
2019-03-31T13:39:14.475Z,18.37
2019-03-31T13:41:47.114Z,22.82
2019-03-31T13:44:17.106Z,24.80
2019-03-31T13:46:47.640Z,20.45
2019-03-31T13:49:18.070Z,17.32
2019-03-31T13:51:48.562Z,19.85
2019-03-31T13:54:18.989Z,20.95
2019-03-31T13:56:50.381Z,20.35
2019-03-31T13:59:21.221Z,17.75
2019-03-31T14:01:51.734Z,17.40
2019-03-31T14:04:22.199Z,17.62
2019-03-31T14:06:52.784Z,17.25
2019-03-31T14:09:23.219Z,22.75
2019-03-31T14:11:54.466Z,16.20
2019-03-31T14:14:26.543Z,14.50
2019-03-31T14:16:57.046Z,17.55
2019-03-31T14:19:27.475Z,19.07
2019-03-31T14:21:58.036Z,16.87
2019-03-31T14:24:28.469Z,19.37
2019-03-31T14:26:58.982Z,19.52
2019-03-31T14:29:29.423Z,24.25
2019-03-31T14:31:59.935Z,16.07
2019-03-31T14:34:30.353Z,19.80
2019-03-31T14:37:00.832Z,19.23
2019-03-31T14:39:31.287Z,19.32
2019-03-31T14:42:01.770Z,17.20
2019-03-31T14:44:32.240Z,20.88
2019-03-31T14:47:02.728Z,22.07
2019-03-31T14:49:33.227Z,17.23
2019-03-31T14:52:03.708Z,19.20
2019-03-31T14:54:34.175Z,17.50
2019-03-31T14:57:04.751Z,14.58
2019-03-31T14:59:35.197Z,21.97
2019-03-31T15:02:05.704Z,22.02
2019-03-31T15:04:36.146Z,19.65
2019-03-31T15:07:06.628Z,21.90
2019-03-31T15:09:37.064Z,32.98
2019-03-31T15:12:07.598Z,33.20
2019-03-31T15:14:39.020Z,27.50
2019-03-31T15:17:09.516Z,27.30
2019-03-31T15:19:39.958Z,18.67
2019-03-31T15:22:10.552Z,20.60
2019-03-31T15:24:40.978Z,19.27
2019-03-31T15:27:11.462Z,21.90
2019-03-31T15:29:41.921Z,25.50
2019-03-31T15:32:12.384Z,17.27
2019-03-31T15:34:42.814Z,21.27
2019-03-31T15:37:13.316Z,24.07
2019-03-31T15:39:43.770Z,19.98
2019-03-31T15:42:14.256Z,21.40
2019-03-31T15:44:44.748Z,24.47
2019-03-31T15:47:15.234Z,30.27
2019-03-31T15:49:45.681Z,27.32
2019-03-31T15:52:16.207Z,27.90
2019-03-31T15:54:46.682Z,28.70
2019-03-31T15:57:17.329Z,27.22
2019-03-31T15:59:56.955Z,21.20
2019-03-31T16:02:29.005Z,41.65
2019-03-31T16:04:59.444Z,37.63
2019-03-31T16:07:29.922Z,38.30
2019-03-31T16:10:00.407Z,36.73
2019-03-31T16:12:30.876Z,52.27
2019-03-31T16:15:02.295Z,34.48
2019-03-31T16:17:32.802Z,357.80
2019-03-31T16:20:03.355Z,256.05
2019-03-31T16:22:33.935Z,96.08
2019-03-31T16:25:22.520Z,149.82
2019-03-31T16:27:53.025Z,171.07
2019-03-31T16:30:23.485Z,173.87
2019-03-31T16:32:53.992Z,203.88
2019-03-31T16:35:24.459Z,231.00
2019-03-31T16:37:54.947Z,222.90
2019-03-31T16:40:25.417Z,187.37
2019-03-31T16:42:55.909Z,197.03
2019-03-31T16:45:26.383Z,184.87
2019-03-31T16:47:56.875Z,186.87
2019-03-31T16:50:27.322Z,172.13
2019-03-31T16:52:57.840Z,152.63
2019-03-31T16:55:28.273Z,160.53
2019-03-31T16:57:58.798Z,258.37
2019-03-31T17:00:29.283Z,221.80
2019-03-31T17:02:59.795Z,176.50
2019-03-31T17:05:32.241Z,159.80
2019-03-31T17:08:02.723Z,143.57
2019-03-31T17:10:33.172Z,128.13
2019-03-31T17:13:03.663Z,135.90
2019-03-31T17:15:35.176Z,128.07
2019-03-31T17:18:05.645Z,135.27
2019-03-31T17:20:36.125Z,102.60
2019-03-31T17:23:06.729Z,121.43
2019-03-31T17:25:37.117Z,74.37
2019-03-31T17:28:10.129Z,87.20
2019-03-31T17:30:39.760Z,119.20
2019-03-31T17:33:11.357Z,120.23
2019-03-31T17:35:42.583Z,121.93
2019-03-31T17:38:13.068Z,135.20
2019-03-31T17:40:43.524Z,133.33
2019-03-31T17:43:14.034Z,126.73
2019-03-31T17:45:44.521Z,132.73
2019-03-31T17:48:15.003Z,121.37
2019-03-31T17:50:45.442Z,136.70
2019-03-31T17:53:15.915Z,133.17
2019-03-31T17:55:46.393Z,204.33
2019-03-31T17:58:16.894Z,133.50
2019-03-31T18:00:47.357Z,119.70
2019-03-31T18:03:17.847Z,124.17
2019-03-31T18:05:48.283Z,132.07
2019-03-31T18:08:18.780Z,118.00
2019-03-31T18:10:49.249Z,127.40
2019-03-31T18:13:19.740Z,103.17
2019-03-31T18:15:53.519Z,89.23
2019-03-31T18:18:23.982Z,97.40
2019-03-31T18:20:54.443Z,111.00
2019-03-31T18:23:25.025Z,125.67
2019-03-31T18:25:55.483Z,126.63
2019-03-31T18:28:25.952Z,148.43
2019-03-31T18:30:56.403Z,157.87
2019-03-31T18:33:26.913Z,178.53
2019-03-31T18:35:57.498Z,152.37
2019-03-31T18:38:27.977Z,144.97
2019-03-31T18:40:58.419Z,171.40
2019-03-31T18:43:28.932Z,128.67
2019-03-31T18:45:59.670Z,157.70
2019-03-31T18:48:30.207Z,146.83
2019-03-31T18:51:00.652Z,151.10
2019-03-31T18:53:49.070Z,147.77
2019-03-31T18:56:37.224Z,155.03
2019-03-31T18:59:18.014Z,153.77
2019-03-31T19:01:59.224Z,153.50
2019-03-31T19:04:46.245Z,162.47
2019-03-31T19:07:24.175Z,146.50
2019-03-31T19:09:59.219Z,125.17
2019-03-31T19:12:47.638Z,111.10
2019-03-31T19:15:19.723Z,90.97
2019-03-31T19:17:52.736Z,96.77
2019-03-31T19:20:33.794Z,99.00
2019-03-31T19:23:06.194Z,164.90
2019-03-31T19:25:41.385Z,108.07
2019-03-31T19:28:13.420Z,111.57
2019-03-31T19:31:03.576Z,113.00
2019-03-31T19:33:50.646Z,84.27
2019-03-31T19:36:31.523Z,116.90
2019-03-31T19:39:12.675Z,89.60
2019-03-31T19:41:53.715Z,81.57
2019-03-31T19:44:44.090Z,95.33
2019-03-31T19:47:24.801Z,95.07
2019-03-31T19:50:02.632Z,99.33
2019-03-31T19:52:34.677Z,85.87
2019-03-31T19:55:16.689Z,88.93
2019-03-31T19:58:07.031Z,67.67
2019-03-31T20:00:39.023Z,73.13
2019-03-31T20:03:27.472Z,88.80
2019-03-31T20:05:59.471Z,87.03
2019-03-31T20:08:34.511Z,73.27
2019-03-31T20:11:15.768Z,69.63
2019-03-31T20:13:47.764Z,65.33
2019-03-31T20:16:25.923Z,89.37
2019-03-31T20:18:58.024Z,69.33
2019-03-31T20:21:32.209Z,68.67
2019-03-31T20:24:18.721Z,84.37
2019-03-31T20:27:06.978Z,67.50
2019-03-31T20:29:55.611Z,71.07
2019-03-31T20:32:33.430Z,70.17
2019-03-31T20:35:09.003Z,80.03
2019-03-31T20:37:41.313Z,71.10
2019-03-31T20:40:19.436Z,74.43
2019-03-31T20:42:54.409Z,73.37
2019-03-31T20:45:24.858Z,79.53
2019-03-31T20:47:55.317Z,82.30
2019-03-31T20:50:25.948Z,105.93
2019-03-31T20:52:56.418Z,102.60
2019-03-31T20:55:26.942Z,97.47
2019-03-31T20:57:57.373Z,96.80
2019-03-31T21:00:27.903Z,107.63
2019-03-31T21:02:58.330Z,102.00
2019-03-31T21:05:28.840Z,107.63
2019-03-31T21:07:59.312Z,110.20
2019-03-31T21:10:30.898Z,122.13
2019-03-31T21:13:01.518Z,124.57
2019-03-31T21:15:32.080Z,124.60
2019-03-31T21:18:02.658Z,110.67
2019-03-31T21:20:34.039Z,90.30
2019-03-31T21:23:04.491Z,101.43
2019-03-31T21:25:34.910Z,79.93
2019-03-31T21:28:05.445Z,73.30
2019-03-31T21:30:36.286Z,91.73
2019-03-31T21:33:06.752Z,77.10
2019-03-31T21:35:37.178Z,70.03
2019-03-31T21:38:07.697Z,51.70
2019-03-31T21:40:42.461Z,46.07
2019-03-31T21:43:12.941Z,48.37
2019-03-31T21:45:43.350Z,38.03
2019-03-31T21:48:13.879Z,42.43
2019-03-31T21:50:44.342Z,39.00
2019-03-31T21:53:14.831Z,42.17
2019-03-31T21:55:45.242Z,37.03
2019-03-31T21:58:15.644Z,38.70
2019-03-31T22:00:47.655Z,40.43
2019-03-31T22:03:18.327Z,34.37
2019-03-31T22:05:48.740Z,31.60
2019-03-31T22:08:19.139Z,35.30
2019-03-31T22:10:49.560Z,30.10
2019-03-31T22:13:20.058Z,33.77
2019-03-31T22:15:50.483Z,28.60
2019-03-31T22:18:20.921Z,37.13
2019-03-31T22:20:51.492Z,32.60
2019-03-31T22:23:21.970Z,31.73
2019-03-31T22:25:52.424Z,31.70
2019-03-31T22:28:23.003Z,33.03
2019-03-31T22:30:53.440Z,30.33
2019-03-31T22:33:23.907Z,32.47
2019-03-31T22:36:12.527Z,35.87
2019-03-31T22:38:43.021Z,34.33
2019-03-31T22:41:13.447Z,40.47
2019-03-31T22:43:43.958Z,37.80
2019-03-31T22:46:14.436Z,34.27
2019-03-31T22:48:44.938Z,30.27
2019-03-31T22:51:15.389Z,37.37
2019-03-31T22:53:45.848Z,35.10
2019-03-31T22:56:16.305Z,34.53
2019-03-31T22:58:46.768Z,29.00
2019-03-31T23:01:17.317Z,29.13
2019-03-31T23:03:47.796Z,35.10
2019-03-31T23:06:18.248Z,37.53
2019-03-31T23:08:48.745Z,30.17
2019-03-31T23:11:19.227Z,36.30
2019-03-31T23:13:49.686Z,30.63
2019-03-31T23:16:20.136Z,29.83
2019-03-31T23:18:50.684Z,29.53
2019-03-31T23:21:21.334Z,32.20
2019-03-31T23:23:51.828Z,38.73
2019-03-31T23:26:22.269Z,28.53
2019-03-31T23:28:52.809Z,31.73
2019-03-31T23:31:23.214Z,30.37
2019-03-31T23:33:53.709Z,32.00
2019-03-31T23:36:24.164Z,29.10
2019-03-31T23:38:58.215Z,25.50
2019-03-31T23:41:26.717Z,26.63
2019-03-31T23:43:57.198Z,26.43
2019-03-31T23:46:27.638Z,29.63
2019-03-31T23:48:58.113Z,30.67
2019-03-31T23:51:28.512Z,23.17
2019-03-31T23:53:58.974Z,28.37
2019-03-31T23:56:29.393Z,30.37
2019-03-31T23:58:59.878Z,26.73
